Latest Weather Observations for Frankston

IDV60801

Issued at 9:31 pm EST Tuesday 24 May 2016 (issued every 30 minutes, with the page automatically refreshed every 10 minutes)

About weather observations | Map of weather stations | Latest weather observations for VIC | Other Formats
Station Details ID: 086371 Name: FRANKSTON AWS Lat: -38.15 Lon: 145.12 Height: 6.0 m
Data from the previous 72 hours. | See also: Recent months at Frankston
Date/Time
EST
Temp
°C
App
Temp
°C
Dew
Point
Rel
Hum
%
Delta-T
°C
Wind Press
QNH
hPa
Press
MSL
hPa
Rain
since 9 am
mm
Dir
 
Spd
km/h
Gust
km/h
Spd
kts
Gust
kts
24/09:30pm 9.8 7.7 6.7 81 1.5 ESE 7 9 4 5 - - -
24/09:00pm 10.1 8.8 6.1 76 1.9 SE 2 7 1 4 - - -
24/08:30pm 12.5 12.1 8.2 75 2.1 CALM 0 0 0 0 - - -
24/08:00pm 12.2 11.7 7.7 74 2.2 CALM 0 2 0 1 - - -
24/07:30pm 12.8 11.7 8.3 74 2.2 S 4 6 2 3 - - -
24/07:00pm 13.4 12.0 8.7 73 2.4 SW 6 7 3 4 - - -
24/06:30pm 13.8 12.2 8.6 71 2.6 WSW 7 13 4 7 - - -
24/06:00pm 13.8 12.3 8.6 71 2.6 SW 6 7 3 4 - - -
24/05:30pm 13.9 12.4 8.5 70 2.7 SW 6 7 3 4 - - -
24/05:00pm 14.3 11.0 8.0 66 3.1 WNW 15 19 8 10 - - -
24/04:30pm 14.3 10.7 8.3 67 3.0 WNW 17 20 9 11 - - -
24/04:00pm 14.2 10.6 8.2 67 3.0 WNW 17 20 9 11 - - -
24/03:30pm 14.2 10.5 7.9 66 3.1 W 17 19 9 10 - - -
24/03:00pm 14.1 10.4 8.1 67 3.0 W 17 19 9 10 - - -
24/02:30pm 14.1 - 8.3 68 2.9 - - - - - - - -
24/02:00pm 13.9 9.5 8.9 72 2.5 W 22 26 12 14 - - -
24/01:30pm 13.9 9.9 8.9 72 2.5 WNW 20 26 11 14 - - -
24/01:00pm 13.8 9.1 9.3 74 2.3 WNW 24 28 13 15 - - -
24/12:30pm 13.7 9.5 9.6 76 2.1 WNW 22 26 12 14 - - -
24/12:00pm 13.5 9.7 9.7 78 1.9 WNW 20 24 11 13 - - -
24/11:30am 13.2 8.6 9.8 80 1.7 WNW 24 28 13 15 - - -
24/11:00am 13.0 7.6 9.6 80 1.7 WNW 28 32 15 17 - - -
24/10:30am 12.9 8.0 9.9 82 1.5 WNW 26 30 14 16 - - -
24/10:00am 12.8 7.8 9.4 80 1.7 WNW 26 30 14 16 - - -
24/09:30am 13.0 8.3 9.4 79 1.8 WNW 24 28 13 15 - - -
24/09:00am 12.6 8.3 9.2 80 1.7 W 22 28 12 15 - - -
24/08:30am 12.6 7.9 9.2 80 1.7 W 24 30 13 16 - - -
24/08:00am 12.7 7.7 9.5 81 1.6 W 26 32 14 17 - - -
24/07:30am 12.7 6.9 9.5 81 1.6 W 30 37 16 20 - - -
24/07:00am 12.6 6.8 9.6 82 1.5 W 30 35 16 19 - - -
24/06:30am 12.5 6.8 9.7 83 1.4 WNW 30 35 16 19 - - -
24/06:00am 12.5 6.7 9.5 82 1.5 WNW 30 35 16 19 - - -
24/05:30am 12.8 7.2 10.0 83 1.4 WNW 30 35 16 19 - - -
24/05:00am 12.6 7.3 9.8 83 1.4 WNW 28 33 15 18 - - -
24/04:30am 12.9 6.9 10.1 83 1.4 WNW 32 39 17 21 - - -
24/04:00am 12.7 6.6 9.7 82 1.5 WNW 32 37 17 20 - - -
24/03:30am 13.0 6.8 9.4 79 1.8 WNW 32 37 17 20 - - -
24/03:00am 12.9 7.2 9.9 82 1.5 WNW 30 37 16 20 - - -
24/02:30am 12.8 7.5 10.0 83 1.4 WNW 28 32 15 17 - - -
24/02:00am 12.9 7.2 9.9 82 1.5 WNW 30 37 16 20 - - -
24/01:30am 12.8 7.5 9.8 82 1.5 WNW 28 35 15 19 - - -
24/01:00am 12.8 7.4 9.4 80 1.7 W 28 33 15 18 - - -
24/12:30am 12.9 7.5 9.5 80 1.7 W 28 33 15 18 - - -
24/12:00am 13.0 7.3 9.8 81 1.6 W 30 37 16 20 - - -
 
Date/Time
EST
Temp
°C
App
Temp
°C
Dew
Point
Rel
Hum
%
Delta-T
°C
Wind Press
QNH
hPa
Press
MSL
hPa
Rain
since 9 am
mm
Dir
 
Spd
km/h
Gust
km/h
Spd
kts
Gust
kts
23/11:30pm 12.9 7.7 10.1 83 1.4 WNW 28 33 15 18 - - -
23/11:00pm 12.9 7.6 9.7 81 1.6 WNW 28 33 15 18 - - -
23/10:30pm 13.0 8.1 10.0 82 1.5 WNW 26 32 14 17 - - -
23/10:00pm 13.0 8.5 10.0 82 1.5 WNW 24 30 13 16 - - -
23/09:30pm 13.0 8.9 10.2 83 1.4 WNW 22 26 12 14 - - -
23/09:00pm 13.2 9.5 10.0 81 1.6 WNW 20 26 11 14 - - -
23/08:30pm 13.3 9.0 9.4 77 2.0 WNW 22 28 12 15 - - -
23/08:00pm 13.1 9.2 9.4 78 1.9 WNW 20 26 11 14 - - -
23/07:30pm 12.7 9.0 9.3 80 1.7 WNW 19 22 10 12 - - -
23/07:00pm 12.6 8.8 9.1 79 1.8 W 19 22 10 12 - - -
23/06:30pm 12.4 8.4 8.9 79 1.8 W 20 26 11 14 - - -
23/06:00pm 12.3 7.1 9.0 80 1.7 W 26 32 14 17 - - -
23/05:30pm 12.8 7.1 8.3 74 2.2 W 28 33 15 18 - - -
23/05:00pm 12.9 7.6 8.6 75 2.1 W 26 32 14 17 - - -
23/04:30pm 12.4 5.5 8.9 79 1.8 W 35 43 19 23 - - -
23/04:00pm 12.7 6.6 8.2 74 2.2 WSW 30 37 16 20 - - -
23/03:30pm 12.6 4.9 8.5 76 2.0 WSW 39 46 21 25 - - -
23/03:00pm 12.6 4.3 7.9 73 2.3 WSW 41 52 22 28 - - -
23/02:45pm 14.0 6.2 6.6 61 3.6 W 37 61 20 33 - - -
23/02:30pm 14.4 7.1 7.0 61 3.6 WNW 35 43 19 23 - - -
23/02:00pm 14.2 6.5 7.3 63 3.4 WNW 37 43 20 23 - - -
23/01:30pm 14.2 6.1 6.8 61 3.6 WNW 39 48 21 26 - - -
23/01:00pm 14.2 6.0 6.6 60 3.7 WNW 39 46 21 25 - - -
23/12:30pm 13.8 6.5 7.3 65 3.2 WNW 35 44 19 24 - - -
23/12:00pm 13.5 5.9 7.5 67 2.9 WNW 37 43 20 23 - - -
23/11:30am 13.1 5.8 7.3 68 2.8 WNW 35 44 19 24 - - -
23/11:00am 13.0 6.0 8.3 73 2.3 WNW 35 43 19 23 - - -
23/10:30am 12.6 5.9 8.3 75 2.1 WNW 33 39 18 21 - - -
23/10:00am 12.5 6.0 8.2 75 2.1 WNW 32 41 17 22 - - -
23/09:30am 12.3 5.8 8.2 76 2.0 WNW 32 39 17 21 - - -
23/09:00am 12.4 4.6 8.3 76 2.0 WNW 39 44 21 24 - - -
23/08:30am 12.6 3.8 8.1 74 2.2 WNW 44 57 24 31 - - -
23/08:00am 12.9 4.3 8.2 73 2.3 WNW 43 54 23 29 - - -
23/07:30am 13.3 4.6 8.4 72 2.4 WNW 44 59 24 32 - - -
23/07:00am 13.8 4.6 8.2 69 2.8 WNW 46 63 25 34 - - -
23/06:30am 14.3 4.8 8.3 67 3.0 WNW 48 67 26 36 - - -
23/06:21am 14.4 5.7 7.7 64 3.3 NW 43 67 23 36 - - -
23/06:00am 14.5 7.1 8.2 66 3.2 NW 37 46 20 25 - - -
23/05:30am 14.6 8.1 8.8 68 2.9 NW 33 43 18 23 - - -
23/05:00am 14.4 6.8 9.0 70 2.7 WNW 39 50 21 27 - - -
23/04:37am 15.1 8.3 9.2 68 3.0 NW 35 54 19 29 - - -
23/04:30am 15.4 9.2 9.3 67 3.1 NW 32 39 17 21 - - -
23/04:00am 15.1 11.2 10.7 75 2.3 NNW 22 28 12 15 - - -
23/03:30am 14.4 10.9 11.0 80 1.8 NW 20 26 11 14 - - -
23/03:00am 14.2 9.4 10.2 77 2.1 WNW 26 30 14 16 - - -
23/02:30am 14.2 7.4 10.6 79 1.9 WNW 37 48 20 26 - - -
23/02:00am 13.8 4.5 10.6 81 1.7 WNW 50 63 27 34 - - -
23/01:49am 14.2 6.8 11.2 82 1.6 WNW 41 69 22 37 - - -
23/01:43am 15.0 10.5 11.4 79 1.9 NW 26 54 14 29 - - -
23/01:30am 16.9 14.0 13.0 78 2.2 NNW 20 26 11 14 - - -
23/01:00am 17.8 14.7 12.3 70 3.0 NNW 20 24 11 13 - - -
23/12:30am 18.6 13.8 11.7 64 3.8 NNW 28 33 15 18 - - -
23/12:00am 19.7 13.8 11.2 58 4.7 N 33 41 18 22 - - -
 
Date/Time
EST
Temp
°C
App
Temp
°C
Dew
Point
Rel
Hum
%
Delta-T
°C
Wind Press
QNH
hPa
Press
MSL
hPa
Rain
since 9 am
mm
Dir
 
Spd
km/h
Gust
km/h
Spd
kts
Gust
kts
22/11:30pm 20.3 14.6 11.0 55 5.1 N 32 37 17 20 - - -
22/11:00pm 20.6 - 10.7 53 5.4 - - - - - - - -
22/10:30pm 21.7 - 9.9 47 6.4 - - - - - - - -
22/10:00pm 21.5 16.2 9.7 47 6.3 NNE 28 39 15 21 - - -
22/09:30pm 21.2 15.5 9.8 48 6.1 NNE 30 35 16 19 - - -
22/09:00pm 20.5 14.9 10.0 51 5.6 NNE 30 39 16 21 - - -
22/08:30pm 20.7 16.8 9.6 49 5.9 NNE 20 30 11 16 - - -
22/08:00pm 20.5 18.1 8.8 47 6.2 NE 11 17 6 9 - - -
22/07:30pm 20.7 18.8 9.0 47 6.2 NE 9 19 5 10 - - -
22/07:00pm 20.6 18.7 8.9 47 6.2 NE 9 17 5 9 - - -
22/06:30pm 21.0 - 8.9 46 6.4 - - - - - - - -
22/06:00pm 20.2 17.7 9.7 51 5.6 N 13 22 7 12 - - -
22/05:30pm 21.3 16.5 8.9 45 6.6 NNE 24 33 13 18 - - -
22/05:00pm 19.6 17.7 10.6 56 4.9 N 11 19 6 10 - - -
22/04:30pm 20.9 18.4 9.8 49 6.0 NNE 13 19 7 10 - - -
22/04:00pm 20.5 17.4 10.3 52 5.5 NNE 17 20 9 11 - - -
22/03:30pm 21.1 17.5 10.0 49 6.0 NNE 19 28 10 15 - - -
22/03:00pm 20.8 15.8 9.7 49 5.9 NNE 26 33 14 18 - - -
22/02:30pm 19.5 - 11.0 58 4.6 - - - - - - - -
22/02:00pm 19.9 - 10.9 56 4.9 - - - - - - - -
22/01:30pm 19.8 14.8 11.0 57 4.8 N 28 39 15 21 - - -
22/01:00pm 20.0 - 10.7 55 5.1 - - - - - - - -
22/12:30pm 19.5 - 11.3 59 4.5 - - - - - - - -
22/12:00pm 19.1 14.1 10.9 59 4.5 N 28 33 15 18 - - -
22/11:30am 19.0 15.1 10.8 59 4.4 N 22 32 12 17 - - -
22/11:00am 18.9 16.8 9.9 56 4.8 NNE 11 15 6 8 - - -
22/10:30am 18.7 15.1 9.8 56 4.7 NNE 19 24 10 13 - - -
22/10:00am 17.6 15.2 8.7 56 4.6 NE 11 19 6 10 - - -
22/09:30am 16.3 14.3 8.8 61 3.8 ENE 9 20 5 11 - - -
22/09:00am 16.1 14.4 8.3 60 4.0 ENE 7 11 4 6 - - -
22/08:30am 15.6 13.4 7.9 60 3.9 E 9 13 5 7 - - -
22/08:00am 14.4 11.7 7.2 62 3.5 ENE 11 19 6 10 - - -
22/07:30am 13.4 10.5 6.5 63 3.3 ENE 11 15 6 8 - - -
22/07:00am 13.3 10.7 6.2 62 3.4 ENE 9 13 5 7 - - -
22/06:30am 13.3 11.1 6.4 63 3.3 E 7 13 4 7 - - -
22/06:00am 12.9 10.7 6.3 64 3.1 E 7 11 4 6 - - -
22/05:30am 12.9 10.8 6.7 66 3.0 ENE 7 11 4 6 - - -
22/05:00am 13.6 11.6 7.2 65 3.1 ENE 7 11 4 6 - - -
22/04:30am 13.0 11.2 7.2 68 2.8 E 6 9 3 5 - - -
22/04:00am 13.2 11.8 7.4 68 2.8 ENE 4 6 2 3 - - -
22/03:30am 13.0 11.3 7.5 69 2.7 E 6 11 3 6 - - -
22/03:00am 12.0 10.7 7.7 75 2.1 ESE 4 7 2 4 - - -
22/02:30am 12.6 11.5 8.5 76 2.0 ENE 4 6 2 3 - - -
22/02:00am 11.1 9.8 7.8 80 1.6 ESE 4 4 2 2 - - -
22/01:30am 10.6 9.3 7.5 81 1.5 SE 4 6 2 3 - - -
22/01:00am 10.9 9.4 7.0 77 1.9 SE 4 6 2 3 - - -
22/12:30am 12.9 12.5 8.4 74 2.2 CALM 0 0 0 0 - - -
22/12:00am 13.0 12.4 8.9 76 2.1 NE 2 6 1 3 - - -
 
Date/Time
EST
Temp
°C
App
Temp
°C
Dew
Point
Rel
Hum
%
Delta-T
°C
Wind Press
QNH
hPa
Press
MSL
hPa
Rain
since 9 am
mm
Dir
 
Spd
km/h
Gust
km/h
Spd
kts
Gust
kts
21/11:30pm 12.9 12.0 9.2 78 1.9 ESE 4 6 2 3 - - -
21/11:00pm 11.9 10.6 7.8 76 2.0 ESE 4 6 2 3 - - -
21/10:30pm 12.5 10.9 8.2 75 2.1 ESE 6 7 3 4 - - -
21/10:00pm 13.0 11.5 8.5 74 2.2 E 6 6 3 3 - - -

Other Formats:

Comma delimited format used in spreadsheet applications
http://www.bom.gov.au/fwo/IDV60801/IDV60801.94871.axf

JavaScript Object Notation format (JSON) in row-major order
http://www.bom.gov.au/fwo/IDV60801/IDV60801.94871.json